createdAt,value
2022-11-23T00:00:03.275Z,57.10
2022-11-23T00:02:29.811Z,57.10
2022-11-23T00:04:56.316Z,57.20
2022-11-23T00:07:22.813Z,57.30
2022-11-23T00:09:49.325Z,57.20
2022-11-23T00:12:15.793Z,57.40
2022-11-23T00:14:42.282Z,57.10
2022-11-23T00:17:08.751Z,57.30
2022-11-23T00:19:35.211Z,57.50
2022-11-23T00:22:01.684Z,57.30
2022-11-23T00:24:28.182Z,57.40
2022-11-23T00:26:54.655Z,57.60
2022-11-23T00:29:21.137Z,57.40
2022-11-23T00:31:47.618Z,57.50
2022-11-23T00:34:14.084Z,57.50
2022-11-23T00:36:40.565Z,57.50
2022-11-23T00:39:07.036Z,57.30
2022-11-23T00:41:33.509Z,57.40
2022-11-23T00:43:59.953Z,57.60
2022-11-23T00:46:26.424Z,57.60
2022-11-23T00:48:52.877Z,57.50
2022-11-23T00:51:19.350Z,57.50
2022-11-23T00:53:45.823Z,57.80
2022-11-23T00:56:12.328Z,57.70
2022-11-23T00:58:38.826Z,57.70
2022-11-23T01:01:05.381Z,57.50
2022-11-23T01:03:31.908Z,57.50
2022-11-23T01:05:58.395Z,57.70
2022-11-23T01:08:24.863Z,57.60
2022-11-23T01:10:51.348Z,57.60
2022-11-23T01:13:17.805Z,57.60
2022-11-23T01:15:44.291Z,57.60
2022-11-23T01:18:11.852Z,57.80
2022-11-23T01:20:38.336Z,57.90
2022-11-23T01:23:04.803Z,57.80
2022-11-23T01:25:31.298Z,57.80
2022-11-23T01:27:57.751Z,57.80
2022-11-23T01:30:24.227Z,57.80
2022-11-23T01:32:50.686Z,57.90
2022-11-23T01:35:17.144Z,57.80
2022-11-23T01:37:43.605Z,57.90
2022-11-23T01:40:10.088Z,58.00
2022-11-23T01:42:36.505Z,58.10
2022-11-23T01:45:02.966Z,58.00
2022-11-23T01:47:29.436Z,58.00
2022-11-23T01:49:55.893Z,58.10
2022-11-23T01:52:22.370Z,58.00
2022-11-23T01:54:48.850Z,58.00
2022-11-23T01:57:15.321Z,58.10
2022-11-23T01:59:41.804Z,57.90
2022-11-23T02:02:08.270Z,58.00
2022-11-23T02:04:34.716Z,58.10
2022-11-23T02:07:01.177Z,58.00
2022-11-23T02:09:27.651Z,57.90
2022-11-23T02:11:54.157Z,58.00
2022-11-23T02:14:23.611Z,58.10
2022-11-23T02:16:50.203Z,58.20
2022-11-23T02:19:16.674Z,58.10
2022-11-23T02:21:43.176Z,58.10
2022-11-23T02:24:09.631Z,58.10
2022-11-23T02:26:36.124Z,58.10
2022-11-23T02:29:02.592Z,58.10
2022-11-23T02:31:29.076Z,58.20
2022-11-23T02:33:55.523Z,58.20
2022-11-23T02:36:22.026Z,58.20
2022-11-23T02:38:48.490Z,58.10
2022-11-23T02:41:14.979Z,58.10
2022-11-23T02:43:41.451Z,58.10
2022-11-23T02:46:07.939Z,58.10
2022-11-23T02:48:34.389Z,58.20
2022-11-23T02:51:00.879Z,58.20
2022-11-23T02:53:27.354Z,58.10
2022-11-23T02:55:53.856Z,58.10
2022-11-23T02:58:20.326Z,58.20
2022-11-23T03:00:46.887Z,58.30
2022-11-23T03:03:13.374Z,58.20
2022-11-23T03:05:39.827Z,58.10
2022-11-23T03:08:06.289Z,58.20
2022-11-23T03:10:32.741Z,58.20
2022-11-23T03:12:59.199Z,58.10
2022-11-23T03:15:25.669Z,58.10
2022-11-23T03:17:52.130Z,58.20
2022-11-23T03:20:18.586Z,58.30
2022-11-23T03:22:45.040Z,58.40
2022-11-23T03:25:11.509Z,58.40
2022-11-23T03:27:37.983Z,58.50
2022-11-23T03:30:04.443Z,58.40
2022-11-23T03:32:30.920Z,58.40
2022-11-23T03:34:57.442Z,58.30
2022-11-23T03:37:23.939Z,58.20
2022-11-23T03:39:50.403Z,58.20
2022-11-23T03:42:16.875Z,58.30
2022-11-23T03:44:43.341Z,58.30
2022-11-23T03:47:09.827Z,58.40
2022-11-23T03:49:36.295Z,58.30
2022-11-23T03:52:02.787Z,58.40
2022-11-23T03:54:29.258Z,58.40
2022-11-23T03:56:55.776Z,58.60
2022-11-23T03:59:22.251Z,58.40
2022-11-23T04:01:48.738Z,58.40
2022-11-23T04:04:15.190Z,58.30
2022-11-23T04:06:41.694Z,58.60
2022-11-23T04:09:08.149Z,58.60
2022-11-23T04:11:34.601Z,58.70
2022-11-23T04:14:01.064Z,58.50
2022-11-23T04:16:27.641Z,58.50
2022-11-23T04:18:54.101Z,58.70
2022-11-23T04:21:20.566Z,58.80
2022-11-23T04:23:47.039Z,58.70
2022-11-23T04:26:13.507Z,58.60
2022-11-23T04:28:39.985Z,58.70
2022-11-23T04:31:06.459Z,58.70
2022-11-23T04:33:32.912Z,58.60
2022-11-23T04:35:59.402Z,58.70
2022-11-23T04:38:26.090Z,58.60
2022-11-23T04:40:52.544Z,58.60
2022-11-23T04:43:19.031Z,58.60
2022-11-23T04:45:45.503Z,58.60
2022-11-23T04:48:11.982Z,58.70
2022-11-23T04:50:40.585Z,58.70
2022-11-23T04:53:07.277Z,58.60
2022-11-23T04:55:33.732Z,58.70
2022-11-23T04:58:00.229Z,58.70
2022-11-23T05:00:26.696Z,58.90
2022-11-23T05:02:53.142Z,58.80
2022-11-23T05:05:19.604Z,58.80
2022-11-23T05:07:46.119Z,58.70
2022-11-23T05:10:12.630Z,58.70
2022-11-23T05:12:39.095Z,58.70
2022-11-23T05:15:05.565Z,58.70
2022-11-23T05:17:32.008Z,58.70
2022-11-23T05:19:58.464Z,58.70
2022-11-23T05:22:24.911Z,58.90
2022-11-23T05:24:51.376Z,59.00
2022-11-23T05:27:17.854Z,59.00
2022-11-23T05:29:44.332Z,59.00
2022-11-23T05:32:10.788Z,59.00
2022-11-23T05:34:37.288Z,58.80
2022-11-23T05:37:03.759Z,58.90
2022-11-23T05:39:30.895Z,58.80
2022-11-23T05:41:57.633Z,58.90
2022-11-23T05:44:24.147Z,58.90
2022-11-23T05:46:50.602Z,59.00
2022-11-23T05:49:17.078Z,58.90
2022-11-23T05:51:43.528Z,59.00
2022-11-23T05:54:10.009Z,58.90
2022-11-23T05:56:40.152Z,59.10
2022-11-23T05:59:06.988Z,59.00
2022-11-23T06:01:33.456Z,59.10
2022-11-23T06:03:59.954Z,59.10
2022-11-23T06:06:26.440Z,59.10
2022-11-23T06:08:52.902Z,59.00
2022-11-23T06:11:19.367Z,59.10
2022-11-23T06:13:45.883Z,59.10
2022-11-23T06:16:12.355Z,59.00
2022-11-23T06:18:38.821Z,59.00
2022-11-23T06:21:05.363Z,58.90
2022-11-23T06:23:31.802Z,59.00
2022-11-23T06:25:58.257Z,59.20
2022-11-23T06:28:24.714Z,59.20
2022-11-23T06:30:51.177Z,59.20
2022-11-23T06:33:17.632Z,59.30
2022-11-23T06:35:44.099Z,59.30
2022-11-23T06:38:10.546Z,59.30
2022-11-23T06:40:36.999Z,59.40
2022-11-23T06:43:03.477Z,59.30
2022-11-23T06:45:29.952Z,59.30
2022-11-23T06:47:56.415Z,59.30
2022-11-23T06:50:22.948Z,59.20
2022-11-23T06:52:49.487Z,59.30
2022-11-23T06:55:15.971Z,59.30
2022-11-23T06:57:42.419Z,59.30
2022-11-23T07:00:08.891Z,59.10
2022-11-23T07:02:35.344Z,59.10
2022-11-23T07:05:01.823Z,59.20
2022-11-23T07:07:28.317Z,59.30
2022-11-23T07:09:57.522Z,59.20
2022-11-23T07:12:24.289Z,59.30
2022-11-23T07:14:50.775Z,59.30
2022-11-23T07:17:17.637Z,59.40
2022-11-23T07:19:44.231Z,59.40
2022-11-23T07:22:10.719Z,59.30
2022-11-23T07:24:41.531Z,59.30
2022-11-23T07:27:10.467Z,59.40
2022-11-23T07:29:36.937Z,59.40
2022-11-23T07:32:03.412Z,59.50
2022-11-23T07:34:29.882Z,59.50
2022-11-23T07:37:01.654Z,59.40
2022-11-23T07:39:42.278Z,59.60
2022-11-23T07:42:32.292Z,59.50
2022-11-23T07:45:01.294Z,59.40
2022-11-23T07:47:27.778Z,59.50
2022-11-23T07:49:54.274Z,59.30
2022-11-23T07:52:20.754Z,59.30
2022-11-23T07:54:47.217Z,59.30
2022-11-23T07:57:13.685Z,59.30
2022-11-23T07:59:40.152Z,59.30
2022-11-23T08:02:06.692Z,59.40
2022-11-23T08:04:33.464Z,59.30
2022-11-23T08:07:00.116Z,59.30
2022-11-23T08:09:26.584Z,59.40
2022-11-23T08:11:53.055Z,59.30
2022-11-23T08:14:19.513Z,59.40
2022-11-23T08:16:45.983Z,59.60
2022-11-23T08:19:12.439Z,59.50
2022-11-23T08:21:38.905Z,59.40
2022-11-23T08:24:05.361Z,59.30
2022-11-23T08:26:31.834Z,59.30
2022-11-23T08:28:58.297Z,59.30
2022-11-23T08:31:24.754Z,59.30
2022-11-23T08:33:51.213Z,59.40
2022-11-23T08:36:17.684Z,59.30
2022-11-23T08:38:44.146Z,59.30
2022-11-23T08:41:10.605Z,59.30
2022-11-23T08:43:37.061Z,59.30
2022-11-23T08:46:07.986Z,59.20
2022-11-23T08:48:37.267Z,59.30
2022-11-23T08:51:03.741Z,59.40
2022-11-23T08:53:30.199Z,59.30
2022-11-23T08:55:56.662Z,59.30
2022-11-23T08:58:23.132Z,59.30
2022-11-23T09:00:49.605Z,59.40
2022-11-23T09:03:16.054Z,59.50
2022-11-23T09:05:42.529Z,59.30
2022-11-23T09:08:09.017Z,59.40
2022-11-23T09:10:35.514Z,59.40
2022-11-23T09:13:01.985Z,59.40
2022-11-23T09:15:28.449Z,59.40
2022-11-23T09:17:54.909Z,59.40
2022-11-23T09:20:21.447Z,59.50
2022-11-23T09:22:47.961Z,59.50
2022-11-23T09:25:14.438Z,59.60
2022-11-23T09:27:40.901Z,59.50
2022-11-23T09:30:07.377Z,59.30
2022-11-23T09:32:33.840Z,59.40
2022-11-23T09:35:00.286Z,59.40
2022-11-23T09:37:26.738Z,59.30
2022-11-23T09:39:53.210Z,59.20
2022-11-23T09:42:19.687Z,59.20
2022-11-23T09:44:46.150Z,59.20
2022-11-23T09:47:12.634Z,59.30
2022-11-23T09:49:39.113Z,59.30
2022-11-23T09:52:05.574Z,59.30
2022-11-23T09:54:32.302Z,59.20
2022-11-23T09:57:01.979Z,59.30
2022-11-23T09:59:28.725Z,59.30
2022-11-23T10:02:00.339Z,59.30
2022-11-23T10:04:26.819Z,59.40
2022-11-23T10:06:53.288Z,59.30
2022-11-23T10:09:19.754Z,59.30
2022-11-23T10:11:46.235Z,59.00
2022-11-23T10:14:12.692Z,59.10
2022-11-23T10:16:39.175Z,59.30
2022-11-23T10:19:05.648Z,59.20
2022-11-23T10:21:32.125Z,58.90
2022-11-23T10:23:58.581Z,59.10
2022-11-23T10:26:25.040Z,59.30
2022-11-23T10:28:51.516Z,59.30
2022-11-23T10:31:17.994Z,58.70
2022-11-23T10:33:44.466Z,58.90
2022-11-23T10:36:10.935Z,58.70
2022-11-23T10:38:37.389Z,58.70
2022-11-23T10:41:03.860Z,58.80
2022-11-23T10:43:30.327Z,58.80
2022-11-23T10:45:59.795Z,58.70
2022-11-23T10:48:26.469Z,58.80
2022-11-23T10:50:52.959Z,58.50
2022-11-23T10:53:19.430Z,58.80
2022-11-23T10:55:45.922Z,58.90
2022-11-23T10:58:12.373Z,59.00
2022-11-23T11:00:38.865Z,58.90
2022-11-23T11:03:05.334Z,58.90
2022-11-23T11:06:07.032Z,58.80
2022-11-23T11:08:18.295Z,58.70
2022-11-23T11:10:44.778Z,58.60
2022-11-23T11:13:11.282Z,58.70
2022-11-23T11:15:47.255Z,58.80
2022-11-23T11:18:14.205Z,58.80
2022-11-23T11:20:40.688Z,58.60
2022-11-23T11:23:07.156Z,58.70
2022-11-23T11:25:33.602Z,58.70
2022-11-23T11:28:00.081Z,58.50
2022-11-23T11:30:30.308Z,58.60
2022-11-23T11:32:56.787Z,58.60
2022-11-23T11:35:23.278Z,58.40
2022-11-23T11:37:49.749Z,58.50
2022-11-23T11:40:16.244Z,58.40
2022-11-23T11:42:42.716Z,58.50
2022-11-23T11:45:09.185Z,58.40
2022-11-23T11:47:35.639Z,58.40
2022-11-23T11:50:02.102Z,58.30
2022-11-23T11:52:28.576Z,58.30
2022-11-23T11:54:55.030Z,58.50
2022-11-23T11:57:21.551Z,58.40
2022-11-23T11:59:48.030Z,58.20
2022-11-23T12:02:14.526Z,58.40
2022-11-23T12:04:41.000Z,58.40
2022-11-23T12:07:07.517Z,58.20
2022-11-23T12:09:34.194Z,58.30
2022-11-23T12:12:00.864Z,58.20
2022-11-23T12:14:27.330Z,58.10
2022-11-23T12:17:10.525Z,58.20
2022-11-23T12:19:40.243Z,58.10
2022-11-23T12:22:06.777Z,58.10
2022-11-23T12:24:33.316Z,58.10
2022-11-23T12:26:59.762Z,58.00
2022-11-23T12:29:26.221Z,58.10
2022-11-23T12:31:52.670Z,58.10
2022-11-23T12:34:19.144Z,58.00
2022-11-23T12:36:45.630Z,57.90
2022-11-23T12:39:12.090Z,58.00
2022-11-23T12:41:38.564Z,58.00
2022-11-23T12:44:05.042Z,58.00
2022-11-23T12:46:31.531Z,58.00
2022-11-23T12:48:58.025Z,58.00
2022-11-23T12:51:24.497Z,58.00
2022-11-23T12:53:51.008Z,58.00
2022-11-23T12:56:17.543Z,57.80
2022-11-23T12:58:44.031Z,57.80
2022-11-23T13:01:10.581Z,57.90
2022-11-23T13:03:37.139Z,57.80
2022-11-23T13:06:03.596Z,57.80
2022-11-23T13:08:30.143Z,57.90
2022-11-23T13:10:56.608Z,57.60
2022-11-23T13:13:23.104Z,57.80
2022-11-23T13:15:49.604Z,57.60
2022-11-23T13:18:16.224Z,57.60
2022-11-23T13:20:42.692Z,57.60
2022-11-23T13:23:09.158Z,57.70
2022-11-23T13:25:35.639Z,57.70
2022-11-23T13:28:02.111Z,57.70
2022-11-23T13:30:45.616Z,57.50
2022-11-23T13:33:15.033Z,57.60
2022-11-23T13:35:41.490Z,57.60
2022-11-23T13:38:07.962Z,57.50
2022-11-23T13:40:34.430Z,57.40
2022-11-23T13:43:00.892Z,57.30
2022-11-23T13:45:27.400Z,57.40
2022-11-23T13:47:53.906Z,57.40
2022-11-23T13:50:20.384Z,57.40
2022-11-23T13:52:46.844Z,57.40
2022-11-23T13:55:13.302Z,57.30
2022-11-23T13:57:39.772Z,57.40
2022-11-23T14:00:06.286Z,57.30
2022-11-23T14:02:32.867Z,57.30
2022-11-23T14:04:59.423Z,57.20
2022-11-23T14:07:25.967Z,57.10
2022-11-23T14:09:52.497Z,57.10
2022-11-23T14:12:18.964Z,57.10
2022-11-23T14:14:45.456Z,57.10
2022-11-23T14:17:11.930Z,57.00
2022-11-23T14:19:38.424Z,57.10
2022-11-23T14:22:04.895Z,57.10
2022-11-23T14:24:31.753Z,57.00
2022-11-23T14:27:04.155Z,57.00
2022-11-23T14:29:44.123Z,57.00
2022-11-23T14:32:10.588Z,57.10
2022-11-23T14:34:37.068Z,56.80
2022-11-23T14:37:03.521Z,56.90
2022-11-23T14:39:29.994Z,57.00
2022-11-23T14:41:56.471Z,57.00
2022-11-23T14:44:22.929Z,57.00
2022-11-23T14:46:49.440Z,57.00
2022-11-23T14:49:15.919Z,57.00
2022-11-23T14:51:42.395Z,57.00
2022-11-23T14:54:08.856Z,57.00
2022-11-23T14:56:35.339Z,56.90
2022-11-23T14:59:01.812Z,56.90
2022-11-23T15:01:28.308Z,57.00
2022-11-23T15:03:54.869Z,56.80
2022-11-23T15:06:21.377Z,56.90
2022-11-23T15:08:49.075Z,56.80
2022-11-23T15:11:16.923Z,56.80
2022-11-23T15:13:44.039Z,57.00
2022-11-23T15:16:11.746Z,56.90
2022-11-23T15:18:38.959Z,56.70
2022-11-23T15:21:06.359Z,56.90
2022-11-23T15:23:33.772Z,56.80
2022-11-23T15:26:00.731Z,56.80
2022-11-23T15:28:27.195Z,56.70
2022-11-23T15:30:58.264Z,56.60
2022-11-23T15:33:25.365Z,56.80
2022-11-23T15:35:51.844Z,56.60
2022-11-23T15:38:23.361Z,56.70
2022-11-23T15:40:50.524Z,56.60
2022-11-23T15:43:16.975Z,56.70
2022-11-23T15:45:43.527Z,56.60
2022-11-23T15:48:10.040Z,56.60
2022-11-23T15:50:36.516Z,56.50
2022-11-23T15:53:02.967Z,56.50
2022-11-23T15:55:29.466Z,56.50
2022-11-23T15:57:55.924Z,56.50
2022-11-23T16:00:22.395Z,56.50
2022-11-23T16:02:48.924Z,56.50
2022-11-23T16:05:15.448Z,56.50
2022-11-23T16:07:41.952Z,56.50
2022-11-23T16:10:08.422Z,56.50
2022-11-23T16:12:34.884Z,56.40
2022-11-23T16:15:01.359Z,56.40
2022-11-23T16:17:27.823Z,56.50
2022-11-23T16:19:54.265Z,56.20
2022-11-23T16:22:20.748Z,56.30
2022-11-23T16:24:47.210Z,56.50
2022-11-23T16:27:13.777Z,56.50
2022-11-23T16:29:40.255Z,56.20
2022-11-23T16:32:06.727Z,56.30
2022-11-23T16:34:33.368Z,56.40
2022-11-23T16:36:59.978Z,56.40
2022-11-23T16:39:26.435Z,56.20
2022-11-23T16:41:52.906Z,56.20
2022-11-23T16:44:19.380Z,56.20
2022-11-23T16:46:45.879Z,56.40
2022-11-23T16:49:12.369Z,56.20
2022-11-23T16:51:38.840Z,56.10
2022-11-23T16:54:13.600Z,56.40
2022-11-23T16:56:41.121Z,56.10
2022-11-23T16:59:07.578Z,56.20
2022-11-23T17:01:34.062Z,56.30
2022-11-23T17:04:00.587Z,56.30
2022-11-23T17:06:27.099Z,56.30
2022-11-23T17:08:59.564Z,56.60
2022-11-23T17:11:29.793Z,56.50
2022-11-23T17:13:56.251Z,56.50
2022-11-23T17:16:22.756Z,56.40
2022-11-23T17:18:49.296Z,56.40
2022-11-23T17:21:15.785Z,56.40
2022-11-23T17:23:42.238Z,56.60
2022-11-23T17:26:08.696Z,56.60
2022-11-23T17:28:35.137Z,56.60
2022-11-23T17:31:01.718Z,56.60
2022-11-23T17:33:28.214Z,56.60
2022-11-23T17:35:54.677Z,57.20
2022-11-23T17:38:21.142Z,56.60
2022-11-23T17:40:47.608Z,56.80
2022-11-23T17:43:14.072Z,56.80
2022-11-23T17:45:40.557Z,56.60
2022-11-23T17:48:07.032Z,56.70
2022-11-23T17:50:33.491Z,56.80
2022-11-23T17:52:59.972Z,56.70
2022-11-23T17:55:26.440Z,56.70
2022-11-23T17:57:52.912Z,56.60
2022-11-23T18:00:19.390Z,56.70
2022-11-23T18:02:45.842Z,56.80
2022-11-23T18:05:15.204Z,56.70
2022-11-23T18:07:46.124Z,56.70
2022-11-23T18:10:12.632Z,56.80
2022-11-23T18:12:39.101Z,56.60
2022-11-23T18:15:05.574Z,56.70
2022-11-23T18:17:32.042Z,56.70
2022-11-23T18:19:58.517Z,56.90
2022-11-23T18:22:25.011Z,57.00
2022-11-23T18:24:51.487Z,57.00
2022-11-23T18:27:17.967Z,57.00
2022-11-23T18:29:44.444Z,56.90
2022-11-23T18:32:10.925Z,57.10
2022-11-23T18:34:37.397Z,57.30
2022-11-23T18:37:03.855Z,57.30
2022-11-23T18:39:30.527Z,57.20
2022-11-23T18:42:02.552Z,56.90
2022-11-23T18:44:31.869Z,57.00
2022-11-23T18:46:58.326Z,57.10
2022-11-23T18:49:24.780Z,57.00
2022-11-23T18:51:51.249Z,57.10
2022-11-23T18:54:17.715Z,57.10
2022-11-23T18:56:44.186Z,57.20
2022-11-23T18:59:15.574Z,57.20
2022-11-23T19:01:55.423Z,57.10
2022-11-23T19:04:21.917Z,57.10
2022-11-23T19:06:48.401Z,57.00
2022-11-23T19:09:14.866Z,57.20
2022-11-23T19:11:41.336Z,57.10
2022-11-23T19:14:07.808Z,57.20
2022-11-23T19:16:34.271Z,57.10
2022-11-23T19:19:00.735Z,57.10
2022-11-23T19:21:27.206Z,57.20
2022-11-23T19:23:53.664Z,57.20
2022-11-23T19:26:20.118Z,57.20
2022-11-23T19:28:46.569Z,57.10
2022-11-23T19:31:13.114Z,57.20
2022-11-23T19:33:39.610Z,57.20
2022-11-23T19:36:06.078Z,57.40
2022-11-23T19:38:32.560Z,57.30
2022-11-23T19:40:59.023Z,57.30
2022-11-23T19:43:25.469Z,57.30
2022-11-23T19:45:51.924Z,57.40
2022-11-23T19:48:18.393Z,57.40
2022-11-23T19:50:44.874Z,57.30
2022-11-23T19:53:12.984Z,57.30
2022-11-23T19:55:39.822Z,57.30
2022-11-23T19:58:06.309Z,57.50
2022-11-23T20:00:32.783Z,57.40
2022-11-23T20:02:59.266Z,57.30
2022-11-23T20:05:25.825Z,57.40
2022-11-23T20:07:52.351Z,57.40
2022-11-23T20:10:18.909Z,57.50
2022-11-23T20:12:45.366Z,57.70
2022-11-23T20:15:11.833Z,57.40
2022-11-23T20:17:38.301Z,57.70
2022-11-23T20:20:04.752Z,57.60
2022-11-23T20:22:31.223Z,57.70
2022-11-23T20:25:00.904Z,57.60
2022-11-23T20:27:27.367Z,57.60
2022-11-23T20:29:53.823Z,57.70
2022-11-23T20:32:20.295Z,57.50
2022-11-23T20:34:46.768Z,57.60
2022-11-23T20:37:13.225Z,57.60
2022-11-23T20:39:39.667Z,57.90
2022-11-23T20:42:06.154Z,58.00
2022-11-23T20:44:34.287Z,57.90
2022-11-23T20:47:02.710Z,58.00
2022-11-23T20:49:30.050Z,57.90
2022-11-23T20:51:56.737Z,57.90
2022-11-23T20:54:23.203Z,58.10
2022-11-23T20:56:49.694Z,58.10
2022-11-23T20:59:16.143Z,58.20
2022-11-23T21:01:42.724Z,58.10
2022-11-23T21:04:09.360Z,58.00
2022-11-23T21:06:38.953Z,58.20
2022-11-23T21:09:06.447Z,58.30
2022-11-23T21:11:32.933Z,58.00
2022-11-23T21:13:59.427Z,58.20
2022-11-23T21:16:25.928Z,58.10
2022-11-23T21:18:52.396Z,57.90
2022-11-23T21:21:18.887Z,58.00
2022-11-23T21:23:50.886Z,58.10
2022-11-23T21:26:18.671Z,58.10
2022-11-23T21:28:45.139Z,58.20
2022-11-23T21:31:11.731Z,58.30
2022-11-23T21:33:38.271Z,58.20
2022-11-23T21:36:04.750Z,58.40
2022-11-23T21:38:31.211Z,58.40
2022-11-23T21:40:57.715Z,58.90
2022-11-23T21:43:24.199Z,58.10
2022-11-23T21:45:50.694Z,58.20
2022-11-23T21:48:17.174Z,58.30
2022-11-23T21:50:43.671Z,58.40
2022-11-23T21:53:10.138Z,58.40
2022-11-23T21:55:36.603Z,58.60
2022-11-23T21:58:03.051Z,58.50
2022-11-23T22:00:31.538Z,58.60
2022-11-23T22:02:58.188Z,58.60
2022-11-23T22:05:24.665Z,58.50
2022-11-23T22:08:13.761Z,58.80
2022-11-23T22:10:37.574Z,58.70
2022-11-23T22:13:04.043Z,58.60
2022-11-23T22:15:30.514Z,58.60
2022-11-23T22:17:57.007Z,58.60
2022-11-23T22:20:23.477Z,58.60
2022-11-23T22:22:49.975Z,58.60
2022-11-23T22:25:16.423Z,58.60
2022-11-23T22:27:42.912Z,58.70
2022-11-23T22:30:09.367Z,58.60
2022-11-23T22:32:35.858Z,58.70
2022-11-23T22:35:02.303Z,58.60
2022-11-23T22:37:28.788Z,58.70
2022-11-23T22:39:55.239Z,58.60
2022-11-23T22:42:21.726Z,58.70
2022-11-23T22:44:48.211Z,58.60
2022-11-23T22:47:14.704Z,58.70
2022-11-23T22:49:41.147Z,58.60
2022-11-23T22:52:07.653Z,58.70
2022-11-23T22:54:34.437Z,58.80
2022-11-23T22:57:01.089Z,58.90
2022-11-23T22:59:27.548Z,58.90
2022-11-23T23:01:54.041Z,58.90
2022-11-23T23:04:20.486Z,58.70
2022-11-23T23:06:46.962Z,58.70
2022-11-23T23:09:13.427Z,58.80
2022-11-23T23:11:39.914Z,58.80
2022-11-23T23:14:06.376Z,58.70
2022-11-23T23:16:32.909Z,58.60
2022-11-23T23:18:59.519Z,58.90
2022-11-23T23:21:26.047Z,58.70
2022-11-23T23:23:52.512Z,58.80
2022-11-23T23:26:18.988Z,58.90
2022-11-23T23:28:45.452Z,58.80
2022-11-23T23:31:11.984Z,58.80
2022-11-23T23:33:38.546Z,59.00
2022-11-23T23:36:05.013Z,59.00
2022-11-23T23:38:31.473Z,59.00
2022-11-23T23:40:57.935Z,59.10
2022-11-23T23:43:24.401Z,59.10
2022-11-23T23:45:50.933Z,59.00
2022-11-23T23:48:17.461Z,59.10
2022-11-23T23:50:43.921Z,59.20
2022-11-23T23:53:10.409Z,59.00
2022-11-23T23:55:36.862Z,59.10
2022-11-23T23:58:03.331Z,59.30
